createdAt,value
2023-04-26T00:01:30.885Z,13.40
2023-04-26T00:03:57.724Z,13.36
2023-04-26T00:06:24.501Z,13.36
2023-04-26T00:08:51.637Z,13.33
2023-04-26T00:11:18.455Z,13.30
2023-04-26T00:13:44.993Z,13.23
2023-04-26T00:16:13.400Z,13.19
2023-04-26T00:18:40.104Z,13.11
2023-04-26T00:21:07.087Z,13.18
2023-04-26T00:23:33.651Z,13.16
2023-04-26T00:26:00.213Z,13.18
2023-04-26T00:28:26.804Z,13.12
2023-04-26T00:30:53.370Z,13.13
2023-04-26T00:33:19.909Z,13.12
2023-04-26T00:35:46.495Z,13.10
2023-04-26T00:38:13.000Z,13.11
2023-04-26T00:40:39.638Z,13.11
2023-04-26T00:43:06.673Z,13.11
2023-04-26T00:45:34.372Z,13.14
2023-04-26T00:48:02.093Z,13.10
2023-04-26T00:50:30.037Z,13.13
2023-04-26T00:52:59.061Z,13.03
2023-04-26T00:55:27.358Z,13.04
2023-04-26T00:57:54.000Z,13.06
2023-04-26T01:00:21.494Z,13.05
2023-04-26T01:02:48.464Z,12.94
2023-04-26T01:05:15.120Z,12.95
2023-04-26T01:07:41.727Z,12.99
2023-04-26T01:10:10.113Z,12.96
2023-04-26T01:12:38.953Z,12.92
2023-04-26T01:15:05.985Z,12.97
2023-04-26T01:17:32.709Z,12.94
2023-04-26T01:19:59.293Z,12.90
2023-04-26T01:22:25.947Z,12.91
2023-04-26T01:24:55.056Z,12.93
2023-04-26T01:27:21.691Z,12.91
2023-04-26T01:29:48.274Z,12.88
2023-04-26T01:32:14.847Z,12.90
2023-04-26T01:34:41.439Z,12.89
2023-04-26T01:37:08.093Z,12.89
2023-04-26T01:39:36.643Z,12.91
2023-04-26T01:42:04.632Z,12.89
2023-04-26T01:44:31.453Z,12.88
2023-04-26T01:46:57.985Z,12.89
2023-04-26T01:49:24.635Z,12.86
2023-04-26T01:51:51.708Z,12.91
2023-04-26T01:54:18.217Z,12.96
2023-04-26T01:56:44.779Z,12.94
2023-04-26T01:59:11.385Z,12.97
2023-04-26T02:01:37.954Z,12.99
2023-04-26T02:04:06.329Z,13.02
2023-04-26T02:06:33.048Z,13.03
2023-04-26T02:08:59.577Z,13.02
2023-04-26T02:11:27.043Z,13.08
2023-04-26T02:13:53.941Z,13.06
2023-04-26T02:16:21.452Z,13.08
2023-04-26T02:18:49.780Z,13.10
2023-04-26T02:21:20.606Z,13.10
2023-04-26T02:23:47.198Z,13.10
2023-04-26T02:26:14.372Z,13.10
2023-04-26T02:28:42.102Z,13.06
2023-04-26T02:31:08.970Z,13.09
2023-04-26T02:33:35.994Z,13.10
2023-04-26T02:36:04.964Z,13.11
2023-04-26T02:38:33.942Z,13.09
2023-04-26T02:41:02.028Z,13.07
2023-04-26T02:43:28.679Z,13.08
2023-04-26T02:45:55.366Z,13.03
2023-04-26T02:48:21.935Z,13.04
2023-04-26T02:50:48.561Z,13.04
2023-04-26T02:53:15.955Z,13.05
2023-04-26T02:55:43.527Z,13.04
2023-04-26T02:58:10.082Z,13.03
2023-04-26T03:00:36.839Z,13.06
2023-04-26T03:03:03.665Z,13.05
2023-04-26T03:05:30.390Z,13.05
2023-04-26T03:07:56.928Z,13.07
2023-04-26T03:10:23.524Z,13.03
2023-04-26T03:12:50.240Z,13.00
2023-04-26T03:15:16.878Z,13.05
2023-04-26T03:17:43.597Z,13.05
2023-04-26T03:20:11.143Z,13.06
2023-04-26T03:22:37.769Z,13.02
2023-04-26T03:25:05.461Z,13.07
2023-04-26T03:27:31.976Z,12.99
2023-04-26T03:29:58.600Z,13.06
2023-04-26T03:32:25.383Z,13.00
2023-04-26T03:34:52.048Z,13.06
2023-04-26T03:37:18.546Z,13.07
2023-04-26T03:39:45.130Z,13.07
2023-04-26T03:42:11.646Z,13.08
2023-04-26T03:44:38.163Z,13.07
2023-04-26T03:47:05.564Z,13.10
2023-04-26T03:49:32.263Z,13.08
2023-04-26T03:51:58.855Z,13.09
2023-04-26T03:54:25.420Z,13.08
2023-04-26T03:56:51.947Z,13.10
2023-04-26T03:59:18.478Z,13.06
2023-04-26T04:01:45.021Z,13.11
2023-04-26T04:04:11.851Z,13.12
2023-04-26T04:06:38.659Z,13.17
2023-04-26T04:09:08.221Z,13.19
2023-04-26T04:11:34.887Z,13.22
2023-04-26T04:14:02.679Z,13.23
2023-04-26T04:16:29.286Z,13.24
2023-04-26T04:18:55.958Z,13.26
2023-04-26T04:21:22.475Z,13.23
2023-04-26T04:23:58.092Z,13.27
2023-04-26T04:26:24.624Z,13.26
2023-04-26T04:28:52.082Z,13.28
2023-04-26T04:31:18.940Z,13.25
2023-04-26T04:33:45.518Z,13.26
2023-04-26T04:36:12.822Z,13.25
2023-04-26T04:38:39.710Z,13.22
2023-04-26T04:41:06.240Z,13.23
2023-04-26T04:43:33.024Z,13.32
2023-04-26T04:45:59.581Z,13.30
2023-04-26T04:48:26.222Z,13.31
2023-04-26T04:50:52.775Z,13.33
2023-04-26T04:53:56.832Z,13.33
2023-04-26T04:56:23.701Z,13.32
2023-04-26T04:58:50.482Z,13.35
2023-04-26T05:01:17.231Z,13.35
2023-04-26T05:03:43.976Z,13.30
2023-04-26T05:06:10.726Z,13.34
2023-04-26T05:08:37.299Z,13.33
2023-04-26T05:11:03.839Z,13.37
2023-04-26T05:13:30.397Z,13.38
2023-04-26T05:15:57.048Z,13.37
2023-04-26T05:18:23.613Z,13.40
2023-04-26T05:20:50.544Z,13.43
2023-04-26T05:23:17.188Z,13.40
2023-04-26T05:25:43.720Z,13.47
2023-04-26T05:28:12.714Z,13.45
2023-04-26T05:30:39.657Z,13.44
2023-04-26T05:33:06.832Z,13.46
2023-04-26T05:35:33.717Z,13.47
2023-04-26T05:38:00.341Z,13.41
2023-04-26T05:40:26.933Z,13.44
2023-04-26T05:42:53.522Z,13.38
2023-04-26T05:45:20.133Z,13.43
2023-04-26T05:47:47.657Z,13.45
2023-04-26T05:50:14.273Z,13.46
2023-04-26T05:52:40.937Z,13.47
2023-04-26T05:55:08.058Z,13.43
2023-04-26T05:57:34.728Z,13.41
2023-04-26T06:00:01.479Z,13.40
2023-04-26T06:02:28.155Z,13.40
2023-04-26T06:04:55.024Z,13.34
2023-04-26T06:07:21.791Z,13.34
2023-04-26T06:09:48.636Z,13.38
2023-04-26T06:12:15.163Z,13.35
2023-04-26T06:14:41.762Z,13.37
2023-04-26T06:17:08.931Z,13.39
2023-04-26T06:19:35.776Z,13.41
2023-04-26T06:22:02.342Z,13.43
2023-04-26T06:24:28.849Z,13.50
2023-04-26T06:26:55.445Z,13.53
2023-04-26T06:29:22.002Z,13.49
2023-04-26T06:31:48.647Z,13.48
2023-04-26T06:34:15.203Z,13.49
2023-04-26T06:36:41.865Z,13.46
2023-04-26T06:39:08.387Z,13.53
2023-04-26T06:41:34.935Z,13.50
2023-04-26T06:44:01.537Z,13.49
2023-04-26T06:46:28.149Z,13.52
2023-04-26T06:48:57.943Z,13.52
2023-04-26T06:51:24.706Z,13.49
2023-04-26T06:53:52.470Z,13.51
2023-04-26T06:56:19.306Z,13.55
2023-04-26T06:59:05.763Z,13.60
2023-04-26T07:01:36.734Z,13.79
2023-04-26T07:04:07.363Z,13.91
2023-04-26T07:06:34.740Z,14.06
2023-04-26T07:09:02.847Z,14.12
2023-04-26T07:11:29.776Z,14.15
2023-04-26T07:13:57.091Z,14.27
2023-04-26T07:16:23.927Z,14.30
2023-04-26T07:18:58.523Z,14.31
2023-04-26T07:21:26.751Z,14.38
2023-04-26T07:23:55.615Z,14.46
2023-04-26T07:26:23.463Z,14.54
2023-04-26T07:28:53.343Z,14.60
2023-04-26T07:31:20.583Z,14.61
2023-04-26T07:33:47.320Z,14.68
2023-04-26T07:36:13.964Z,14.68
2023-04-26T07:38:40.538Z,14.72
2023-04-26T07:41:07.260Z,14.65
2023-04-26T07:43:33.807Z,14.62
2023-04-26T07:46:03.182Z,14.64
2023-04-26T07:48:29.898Z,14.69
2023-04-26T07:50:56.630Z,14.81
2023-04-26T07:53:23.295Z,14.85
2023-04-26T07:55:52.955Z,14.95
2023-04-26T07:58:19.824Z,15.05
2023-04-26T08:00:46.344Z,15.11
2023-04-26T08:03:16.748Z,15.10
2023-04-26T08:05:43.898Z,15.15
2023-04-26T08:08:10.957Z,15.10
2023-04-26T08:10:40.622Z,15.12
2023-04-26T08:13:19.199Z,15.20
2023-04-26T08:15:45.791Z,15.22
2023-04-26T08:18:12.410Z,15.24
2023-04-26T08:20:57.405Z,15.25
2023-04-26T08:23:23.997Z,15.27
2023-04-26T08:25:50.613Z,15.26
2023-04-26T08:28:17.243Z,15.31
2023-04-26T08:30:44.010Z,15.35
2023-04-26T08:33:10.789Z,15.36
2023-04-26T08:35:37.451Z,15.31
2023-04-26T08:38:04.048Z,15.36
2023-04-26T08:40:31.611Z,15.33
2023-04-26T08:42:58.251Z,15.32
2023-04-26T08:45:25.059Z,15.26
2023-04-26T08:47:56.972Z,15.24
2023-04-26T08:50:24.263Z,15.17
2023-04-26T08:52:52.167Z,15.13
2023-04-26T08:55:22.514Z,15.04
2023-04-26T08:57:50.747Z,15.01
2023-04-26T09:00:18.844Z,14.92
2023-04-26T09:02:51.454Z,14.88
2023-04-26T09:05:23.554Z,14.85
2023-04-26T09:07:51.260Z,14.90
2023-04-26T09:10:22.094Z,14.83
2023-04-26T09:12:55.991Z,14.85
2023-04-26T09:15:25.018Z,14.82
2023-04-26T09:17:52.385Z,14.78
2023-04-26T09:20:26.414Z,14.79
2023-04-26T09:23:09.789Z,14.76
2023-04-26T09:25:36.656Z,14.72
2023-04-26T09:28:04.679Z,14.66
2023-04-26T09:30:31.428Z,14.65
2023-04-26T09:33:07.008Z,14.63
2023-04-26T09:35:41.861Z,14.64
2023-04-26T09:38:13.544Z,14.54
2023-04-26T09:40:46.115Z,14.56
2023-04-26T09:43:14.256Z,14.58
2023-04-26T09:45:53.985Z,14.54
2023-04-26T09:48:32.065Z,14.61
2023-04-26T09:51:04.648Z,14.59
2023-04-26T09:53:37.241Z,14.59
2023-04-26T09:56:08.614Z,14.60
2023-04-26T09:58:38.645Z,14.59
2023-04-26T10:01:07.116Z,14.60
2023-04-26T10:03:37.032Z,14.56
2023-04-26T10:06:04.610Z,14.58
2023-04-26T10:08:32.979Z,14.58
2023-04-26T10:11:02.250Z,14.54
2023-04-26T10:13:29.165Z,14.52
2023-04-26T10:15:56.575Z,14.57
2023-04-26T10:18:23.134Z,14.52
2023-04-26T10:20:53.052Z,14.38
2023-04-26T10:23:27.359Z,14.40
2023-04-26T10:25:55.098Z,14.35
2023-04-26T10:28:44.752Z,14.28
2023-04-26T10:31:11.795Z,14.25
2023-04-26T10:33:38.369Z,14.18
2023-04-26T10:36:08.146Z,14.22
2023-04-26T10:38:37.161Z,14.19
2023-04-26T10:41:48.839Z,14.23
2023-04-26T10:44:40.062Z,14.22
2023-04-26T10:47:20.375Z,14.24
2023-04-26T10:49:48.294Z,14.23
2023-04-26T10:52:20.461Z,14.27
2023-04-26T10:54:57.441Z,14.28
2023-04-26T10:57:47.891Z,14.28
2023-04-26T11:00:32.319Z,14.27
2023-04-26T11:03:03.981Z,14.30
2023-04-26T11:05:51.032Z,14.31
2023-04-26T11:08:20.558Z,14.31
2023-04-26T11:10:53.004Z,14.33
2023-04-26T11:13:20.423Z,14.29
2023-04-26T11:15:49.088Z,14.36
2023-04-26T11:18:19.841Z,14.40
2023-04-26T11:20:46.702Z,14.43
2023-04-26T11:23:13.398Z,14.44
2023-04-26T11:25:40.299Z,14.46
2023-04-26T11:28:06.988Z,14.50
2023-04-26T11:30:33.546Z,14.50
2023-04-26T11:33:01.535Z,14.50
2023-04-26T11:35:29.686Z,14.56
2023-04-26T11:38:02.260Z,14.62
2023-04-26T11:40:33.158Z,14.55
2023-04-26T11:43:06.618Z,14.57
2023-04-26T11:45:35.041Z,14.60
2023-04-26T11:48:07.750Z,14.57
2023-04-26T11:50:39.104Z,14.59
2023-04-26T11:53:08.045Z,14.59
2023-04-26T11:55:35.943Z,14.55
2023-04-26T11:58:11.478Z,14.61
2023-04-26T12:00:38.862Z,14.66
2023-04-26T12:03:10.254Z,14.65
2023-04-26T12:05:37.941Z,14.75
2023-04-26T12:08:04.787Z,14.83
2023-04-26T12:10:38.668Z,14.83
2023-04-26T12:13:05.310Z,14.97
2023-04-26T12:15:33.197Z,15.00
2023-04-26T12:18:11.345Z,15.06
2023-04-26T12:20:40.670Z,15.08
2023-04-26T12:23:10.070Z,15.08
2023-04-26T12:25:39.389Z,15.18
2023-04-26T12:28:12.422Z,15.25
2023-04-26T12:30:40.354Z,15.30
2023-04-26T12:33:16.230Z,15.35
2023-04-26T12:35:43.561Z,15.43
2023-04-26T12:38:10.418Z,15.64
2023-04-26T12:40:37.283Z,15.74
2023-04-26T12:43:04.040Z,15.82
2023-04-26T12:45:30.757Z,15.86
2023-04-26T12:47:57.371Z,16.00
2023-04-26T12:50:24.175Z,16.13
2023-04-26T12:52:50.753Z,16.31
2023-04-26T12:55:17.281Z,16.52
2023-04-26T12:57:45.550Z,16.59
2023-04-26T13:00:19.762Z,16.58
2023-04-26T13:02:46.771Z,16.39
2023-04-26T13:05:14.263Z,16.24
2023-04-26T13:07:43.493Z,16.14
2023-04-26T13:10:12.876Z,16.18
2023-04-26T13:12:40.181Z,16.14
2023-04-26T13:15:08.796Z,16.23
2023-04-26T13:17:37.412Z,16.32
2023-04-26T13:20:07.981Z,16.33
2023-04-26T13:22:34.659Z,16.24
2023-04-26T13:25:01.248Z,16.16
2023-04-26T13:27:30.517Z,16.10
2023-04-26T13:29:58.416Z,15.99
2023-04-26T13:32:25.129Z,15.85
2023-04-26T13:34:51.840Z,15.86
2023-04-26T13:37:21.384Z,15.87
2023-04-26T13:39:48.618Z,15.85
2023-04-26T13:42:16.366Z,15.81
2023-04-26T13:44:43.283Z,15.72
2023-04-26T13:47:10.056Z,15.63
2023-04-26T13:49:37.223Z,15.49
2023-04-26T13:52:03.811Z,15.44
2023-04-26T13:54:30.625Z,15.38
2023-04-26T13:56:58.282Z,15.31
2023-04-26T13:59:24.847Z,15.28
2023-04-26T14:01:54.252Z,15.23
2023-04-26T14:04:22.194Z,15.20
2023-04-26T14:06:48.835Z,15.17
2023-04-26T14:09:16.189Z,15.25
2023-04-26T14:11:42.842Z,15.30
2023-04-26T14:14:09.376Z,15.34
2023-04-26T14:16:36.063Z,15.33
2023-04-26T14:19:02.683Z,15.26
2023-04-26T14:21:29.204Z,15.12
2023-04-26T14:23:56.531Z,15.05
2023-04-26T14:26:25.998Z,15.00
2023-04-26T14:28:52.629Z,14.93
2023-04-26T14:31:19.916Z,14.92
2023-04-26T14:33:46.583Z,14.88
2023-04-26T14:36:13.218Z,14.89
2023-04-26T14:38:43.733Z,14.90
2023-04-26T14:41:18.022Z,14.90
2023-04-26T14:43:46.314Z,14.80
2023-04-26T14:46:13.455Z,14.90
2023-04-26T14:48:40.142Z,14.86
2023-04-26T14:51:06.812Z,14.85
2023-04-26T14:53:33.320Z,14.82
2023-04-26T14:56:00.709Z,14.77
2023-04-26T14:58:27.751Z,14.75
2023-04-26T15:00:54.383Z,14.72
2023-04-26T15:03:21.120Z,14.68
2023-04-26T15:05:47.941Z,14.66
2023-04-26T15:08:14.551Z,14.58
2023-04-26T15:10:41.089Z,14.61
2023-04-26T15:13:07.773Z,14.60
2023-04-26T15:15:34.321Z,14.62
2023-04-26T15:18:01.888Z,14.62
2023-04-26T15:20:28.589Z,14.61
2023-04-26T15:22:55.251Z,14.60
2023-04-26T15:25:21.838Z,14.52
2023-04-26T15:27:50.308Z,14.51
2023-04-26T15:30:17.245Z,14.48
2023-04-26T15:32:47.796Z,14.47
2023-04-26T15:35:15.421Z,14.45
2023-04-26T15:37:42.010Z,14.44
2023-04-26T15:40:10.524Z,14.44
2023-04-26T15:42:37.594Z,14.43
2023-04-26T15:45:04.364Z,14.43
2023-04-26T15:47:31.141Z,14.40
2023-04-26T15:50:03.550Z,14.39
2023-04-26T15:52:30.810Z,14.43
2023-04-26T15:54:57.382Z,14.44
2023-04-26T15:57:23.961Z,14.42
2023-04-26T15:59:51.127Z,14.41
2023-04-26T16:02:17.842Z,14.40
2023-04-26T16:04:44.708Z,14.39
2023-04-26T16:07:11.764Z,14.35
2023-04-26T16:09:38.421Z,14.34
2023-04-26T16:12:05.619Z,14.32
2023-04-26T16:14:35.040Z,14.29
2023-04-26T16:17:03.498Z,14.25
2023-04-26T16:19:30.068Z,14.22
2023-04-26T16:21:56.761Z,14.20
2023-04-26T16:24:24.367Z,14.18
2023-04-26T16:26:50.906Z,14.16
2023-04-26T16:29:17.733Z,14.14
2023-04-26T16:31:44.562Z,14.14
2023-04-26T16:34:11.452Z,14.11
2023-04-26T16:36:38.027Z,14.11
2023-04-26T16:39:04.553Z,14.08
2023-04-26T16:41:31.056Z,14.08
2023-04-26T16:43:57.645Z,14.04
2023-04-26T16:46:24.204Z,14.06
2023-04-26T16:48:51.032Z,14.05
2023-04-26T16:51:17.806Z,14.04
2023-04-26T16:53:44.312Z,14.05
2023-04-26T16:56:11.057Z,14.04
2023-04-26T16:58:37.805Z,14.04
2023-04-26T17:01:04.814Z,14.03
2023-04-26T17:03:31.832Z,14.00
2023-04-26T17:05:58.777Z,14.00
2023-04-26T17:08:25.918Z,14.00
2023-04-26T17:10:52.791Z,13.99
2023-04-26T17:13:19.907Z,13.98
2023-04-26T17:15:46.833Z,13.96
2023-04-26T17:18:13.756Z,13.95
2023-04-26T17:20:41.187Z,13.94
2023-04-26T17:23:08.679Z,13.95
2023-04-26T17:25:35.811Z,13.92
2023-04-26T17:28:02.421Z,13.90
2023-04-26T17:30:29.075Z,13.87
2023-04-26T17:32:56.003Z,13.84
2023-04-26T17:35:22.609Z,13.80
2023-04-26T17:37:50.460Z,13.78
2023-04-26T17:40:18.582Z,13.76
2023-04-26T17:42:46.240Z,13.73
2023-04-26T17:45:14.031Z,13.70
2023-04-26T17:47:45.468Z,13.64
2023-04-26T17:50:12.490Z,13.60
2023-04-26T17:52:39.081Z,13.54
2023-04-26T17:55:08.135Z,13.51
2023-04-26T17:57:34.723Z,13.47
2023-04-26T18:00:01.375Z,13.44
2023-04-26T18:02:28.221Z,13.42
2023-04-26T18:04:55.199Z,13.39
2023-04-26T18:07:21.997Z,13.34
2023-04-26T18:09:48.526Z,13.32
2023-04-26T18:12:15.439Z,13.29
2023-04-26T18:14:45.141Z,13.24
2023-04-26T18:17:15.370Z,13.22
2023-04-26T18:19:42.672Z,13.20
2023-04-26T18:22:09.403Z,13.21
2023-04-26T18:24:35.994Z,13.21
2023-04-26T18:27:03.194Z,13.21
2023-04-26T18:29:30.201Z,13.19
2023-04-26T18:31:56.825Z,13.21
2023-04-26T18:34:23.561Z,13.20
2023-04-26T18:36:50.123Z,13.22
2023-04-26T18:39:16.759Z,13.21
2023-04-26T18:41:43.457Z,13.25
2023-04-26T18:44:15.966Z,13.22
2023-04-26T18:46:43.137Z,13.24
2023-04-26T18:49:10.094Z,13.22
2023-04-26T18:51:36.724Z,13.24
2023-04-26T18:54:03.374Z,13.23
2023-04-26T18:56:30.094Z,13.22
2023-04-26T18:58:57.159Z,13.21
2023-04-26T19:01:24.123Z,13.06
2023-04-26T19:03:51.016Z,13.02
2023-04-26T19:06:17.702Z,12.86
2023-04-26T19:08:45.083Z,12.74
2023-04-26T19:11:12.411Z,12.75
2023-04-26T19:13:40.176Z,12.74
2023-04-26T19:16:07.766Z,12.67
2023-04-26T19:18:36.064Z,12.55
2023-04-26T19:21:04.112Z,12.46
2023-04-26T19:23:30.821Z,12.39
2023-04-26T19:26:13.804Z,12.24
2023-04-26T19:28:40.878Z,12.15
2023-04-26T19:31:07.459Z,12.11
2023-04-26T19:33:34.129Z,12.10
2023-04-26T19:36:00.816Z,12.02
2023-04-26T19:38:27.335Z,11.99
2023-04-26T19:40:54.179Z,11.96
2023-04-26T19:43:20.843Z,11.97
2023-04-26T19:45:47.689Z,11.96
2023-04-26T19:48:14.421Z,11.92
2023-04-26T19:50:42.323Z,11.88
2023-04-26T19:53:10.139Z,11.74
2023-04-26T19:55:38.048Z,11.80
2023-04-26T19:58:05.974Z,11.63
2023-04-26T20:00:38.571Z,11.49
2023-04-26T20:03:05.750Z,11.50
2023-04-26T20:05:33.507Z,11.50
2023-04-26T20:08:00.407Z,11.36
2023-04-26T20:10:30.420Z,11.38
2023-04-26T20:12:56.989Z,11.34
2023-04-26T20:15:24.220Z,11.12
2023-04-26T20:17:50.993Z,11.09
2023-04-26T20:20:17.603Z,11.08
2023-04-26T20:22:44.165Z,10.93
2023-04-26T20:25:10.992Z,11.01
2023-04-26T20:27:37.823Z,10.90
2023-04-26T20:30:04.848Z,11.03
2023-04-26T20:32:31.563Z,10.93
2023-04-26T20:34:58.321Z,10.67
2023-04-26T20:37:24.830Z,10.68
2023-04-26T20:39:51.431Z,10.69
2023-04-26T20:42:17.944Z,10.54
2023-04-26T20:44:44.465Z,10.41
2023-04-26T20:47:11.055Z,10.42
2023-04-26T20:49:37.571Z,10.40
2023-04-26T20:52:04.419Z,10.37
2023-04-26T20:54:31.836Z,10.39
2023-04-26T20:56:58.514Z,10.44
2023-04-26T20:59:25.970Z,10.38
2023-04-26T21:01:53.700Z,10.36
2023-04-26T21:04:20.752Z,10.17
2023-04-26T21:07:06.281Z,10.13
2023-04-26T21:09:32.857Z,10.01
2023-04-26T21:11:59.385Z,9.94
2023-04-26T21:14:26.256Z,9.92
2023-04-26T21:16:52.776Z,9.78
2023-04-26T21:19:19.677Z,9.79
2023-04-26T21:21:46.383Z,9.75
2023-04-26T21:24:13.169Z,9.69
2023-04-26T21:26:39.729Z,9.83
2023-04-26T21:29:07.882Z,9.78
2023-04-26T21:31:34.959Z,9.80
2023-04-26T21:34:01.559Z,9.74
2023-04-26T21:36:28.178Z,9.82
2023-04-26T21:38:54.732Z,9.75
2023-04-26T21:41:21.323Z,9.75
2023-04-26T21:43:47.933Z,9.81
2023-04-26T21:46:14.501Z,9.76
2023-04-26T21:48:41.081Z,9.63
2023-04-26T21:51:07.657Z,9.64
2023-04-26T21:53:34.221Z,9.64
2023-04-26T21:56:00.782Z,9.69
2023-04-26T21:58:27.504Z,9.63
2023-04-26T22:00:54.055Z,9.58
2023-04-26T22:03:21.856Z,9.70
2023-04-26T22:05:48.711Z,9.63
2023-04-26T22:08:15.468Z,9.63
2023-04-26T22:10:42.084Z,9.60
2023-04-26T22:13:08.725Z,9.55
2023-04-26T22:15:57.001Z,9.57
2023-04-26T22:18:23.609Z,9.67
2023-04-26T22:20:50.129Z,9.59
2023-04-26T22:23:16.778Z,9.51
2023-04-26T22:25:43.346Z,9.47
2023-04-26T22:28:09.892Z,9.55
2023-04-26T22:30:36.446Z,9.61
2023-04-26T22:33:03.315Z,9.51
2023-04-26T22:35:30.126Z,9.67
2023-04-26T22:37:56.805Z,9.55
2023-04-26T22:40:23.431Z,9.53
2023-04-26T22:42:49.930Z,9.52
2023-04-26T22:45:16.515Z,9.49
2023-04-26T22:47:43.078Z,9.55
2023-04-26T22:50:10.168Z,9.62
2023-04-26T22:52:38.225Z,9.65
2023-04-26T22:55:05.128Z,9.58
2023-04-26T22:57:31.883Z,9.57
2023-04-26T22:59:58.422Z,9.48
2023-04-26T23:02:25.137Z,9.50
2023-04-26T23:04:51.776Z,9.38
2023-04-26T23:07:18.330Z,9.53
2023-04-26T23:09:44.935Z,9.61
2023-04-26T23:12:11.604Z,9.39
2023-04-26T23:14:38.103Z,9.46
2023-04-26T23:17:05.734Z,9.54
2023-04-26T23:19:33.107Z,9.45
2023-04-26T23:21:59.805Z,9.41
2023-04-26T23:24:26.914Z,9.35
2023-04-26T23:26:53.620Z,9.46
2023-04-26T23:29:20.264Z,9.41
2023-04-26T23:31:46.890Z,9.32
2023-04-26T23:34:13.449Z,9.16
2023-04-26T23:36:39.946Z,9.21
2023-04-26T23:39:07.281Z,9.18
2023-04-26T23:41:33.794Z,9.27
2023-04-26T23:44:00.315Z,9.15
2023-04-26T23:46:27.022Z,9.24
2023-04-26T23:48:53.593Z,9.28
2023-04-26T23:51:20.120Z,9.27
2023-04-26T23:53:46.684Z,9.19
2023-04-26T23:56:13.296Z,9.27
2023-04-26T23:58:39.892Z,9.24
